Terminal Aerodrome Forecast
Issued by NWS

Home | Current Version | Previous Version | Text Only | Print | Product List | Glossary On
Versions: 1 2 3 4 5 6 7 8 9 10 11 12 13 14 15
000
FTUS41 KCAR 301016 AAB
TAFFVE
TAF AMD
KFVE 301016Z 3010/3106 23005KT P6SM -SHRA SCT025 OVC070
      TEMPO 3010/3012 3SM BR
     FM301300 27005KT P6SM BKN025
     FM301500 27006KT P6SM BKN035
     FM301800 27007KT P6SM SCT070=

USA.gov is the U.S. government's official web portal to all federal, state and local government web resources and services.